createdAt,value
2018-05-08T00:00:17.991Z,94.60
2018-05-08T00:02:46.075Z,94.50
2018-05-08T00:05:14.240Z,94.70
2018-05-08T00:07:42.293Z,94.80
2018-05-08T00:10:10.376Z,94.80
2018-05-08T00:12:38.807Z,94.90
2018-05-08T00:15:06.879Z,94.90
2018-05-08T00:17:34.925Z,95.10
2018-05-08T00:20:03.263Z,95.20
2018-05-08T00:22:31.336Z,95.40
2018-05-08T00:24:59.385Z,95.40
2018-05-08T00:27:28.818Z,95.20
2018-05-08T00:29:56.873Z,95.20
2018-05-08T00:32:24.953Z,95.30
2018-05-08T00:34:53.162Z,95.40
2018-05-08T00:37:21.229Z,95.70
2018-05-08T00:39:49.305Z,95.90
2018-05-08T00:42:17.717Z,95.90
2018-05-08T00:44:46.552Z,96.90
2018-05-08T00:47:14.614Z,96.90
2018-05-08T00:49:42.834Z,97.40
2018-05-08T00:52:10.902Z,97.30
2018-05-08T00:54:50.664Z,97.20
2018-05-08T00:57:19.637Z,97.20
2018-05-08T00:59:47.740Z,97.00
2018-05-08T01:02:16.573Z,97.40
2018-05-08T01:04:44.775Z,97.40
2018-05-08T01:07:12.850Z,97.60
2018-05-08T01:09:40.915Z,97.60
2018-05-08T01:12:09.292Z,97.70
2018-05-08T01:14:37.363Z,97.70
2018-05-08T01:17:05.434Z,98.00
2018-05-08T01:19:33.814Z,98.10
2018-05-08T01:22:01.891Z,98.10
2018-05-08T01:24:29.968Z,98.10
2018-05-08T01:26:58.327Z,98.10
2018-05-08T01:29:27.071Z,98.10
2018-05-08T01:31:55.888Z,98.40
2018-05-08T01:34:24.050Z,98.30
2018-05-08T01:36:52.128Z,98.50
2018-05-08T01:39:20.199Z,98.80
2018-05-08T01:41:49.051Z,98.70
2018-05-08T01:44:17.885Z,98.80
2018-05-08T01:46:45.949Z,98.70
2018-05-08T01:49:14.371Z,98.70
2018-05-08T01:51:43.217Z,98.90
2018-05-08T01:54:11.294Z,98.90
2018-05-08T01:56:39.492Z,98.90
2018-05-08T01:59:07.578Z,98.80
2018-05-08T02:01:36.418Z,99.40
2018-05-08T02:04:04.954Z,99.10
2018-05-08T02:06:33.774Z,99.40
2018-05-08T02:09:01.848Z,99.40
2018-05-08T02:11:30.392Z,99.50
2018-05-08T02:13:59.221Z,99.60
2018-05-08T02:16:27.299Z,99.60
2018-05-08T02:18:55.424Z,99.40
2018-05-08T02:21:23.490Z,99.70
2018-05-08T02:23:51.561Z,99.90
2018-05-08T02:26:20.062Z,99.90
2018-05-08T02:28:48.896Z,99.90
2018-05-08T02:31:18.063Z,99.90
2018-05-08T02:33:46.920Z,99.90
2018-05-08T02:36:14.982Z,99.90
2018-05-08T02:38:43.055Z,99.90
2018-05-08T02:41:11.540Z,99.90
2018-05-08T02:43:39.614Z,99.90
2018-05-08T02:46:07.692Z,99.90
2018-05-08T02:48:36.649Z,99.90
2018-05-08T02:51:04.708Z,99.90
2018-05-08T02:53:32.775Z,99.90
2018-05-08T02:56:00.975Z,99.90
2018-05-08T02:58:29.043Z,99.90
2018-05-08T03:00:57.127Z,99.90
2018-05-08T03:03:25.725Z,99.90
2018-05-08T03:05:54.557Z,99.90
2018-05-08T03:08:22.613Z,99.90
2018-05-08T03:10:51.171Z,99.90
2018-05-08T03:13:19.999Z,99.90
2018-05-08T03:15:48.071Z,99.90
2018-05-08T03:18:16.587Z,99.90
2018-05-08T03:20:44.656Z,99.90
2018-05-08T03:23:12.734Z,99.90
2018-05-08T03:25:41.383Z,99.90
2018-05-08T03:28:09.436Z,99.90
2018-05-08T03:30:37.520Z,99.90
2018-05-08T03:33:06.420Z,99.90
2018-05-08T03:35:34.468Z,99.90
2018-05-08T03:38:02.571Z,99.90
2018-05-08T03:40:30.715Z,99.90
2018-05-08T03:42:58.765Z,99.90
2018-05-08T03:45:26.838Z,99.90
2018-05-08T03:47:55.085Z,99.90
2018-05-08T03:50:23.143Z,99.90
2018-05-08T03:52:51.216Z,99.90
2018-05-08T03:55:19.806Z,99.90
2018-05-08T03:57:47.880Z,99.90
2018-05-08T04:00:27.630Z,99.90
2018-05-08T04:03:07.466Z,99.90
2018-05-08T04:05:47.278Z,99.90
2018-05-08T04:08:27.260Z,99.90
2018-05-08T04:10:55.341Z,99.90
2018-05-08T04:13:23.401Z,99.90
2018-05-08T04:15:51.485Z,99.90
2018-05-08T04:18:20.054Z,99.90
2018-05-08T04:20:48.121Z,99.90
2018-05-08T04:23:16.208Z,99.90
2018-05-08T04:25:44.585Z,99.90
2018-05-08T04:28:12.656Z,99.90
2018-05-08T04:30:40.730Z,99.90
2018-05-08T04:33:09.048Z,99.90
2018-05-08T04:35:37.097Z,99.90
2018-05-08T04:38:05.167Z,99.90
2018-05-08T04:40:33.615Z,99.90
2018-05-08T04:43:01.678Z,99.90
2018-05-08T04:45:29.767Z,99.90
2018-05-08T04:47:58.441Z,99.90
2018-05-08T04:50:26.521Z,99.90
2018-05-08T04:52:54.599Z,99.90
2018-05-08T04:55:22.969Z,99.90
2018-05-08T04:57:51.041Z,99.90
2018-05-08T05:00:19.117Z,99.90
2018-05-08T05:02:47.852Z,99.90
2018-05-08T05:05:15.887Z,99.90
2018-05-08T05:07:44.723Z,99.90
2018-05-08T05:10:13.105Z,99.90
2018-05-08T05:12:41.177Z,99.90
2018-05-08T05:15:09.237Z,99.90
2018-05-08T05:17:37.471Z,99.90
2018-05-08T05:20:05.530Z,99.90
2018-05-08T05:22:33.596Z,99.90
2018-05-08T05:25:02.283Z,99.90
2018-05-08T05:27:30.356Z,99.90
2018-05-08T05:29:58.421Z,99.90
2018-05-08T05:32:26.613Z,99.90
2018-05-08T05:34:55.364Z,99.90
2018-05-08T05:37:23.426Z,99.90
2018-05-08T05:39:52.093Z,99.90
2018-05-08T05:42:20.158Z,99.90
2018-05-08T05:44:48.233Z,99.90
2018-05-08T05:47:16.775Z,99.90
2018-05-08T05:49:44.847Z,99.90
2018-05-08T05:52:12.964Z,99.90
2018-05-08T05:54:41.593Z,99.90
2018-05-08T05:57:09.663Z,99.90
2018-05-08T05:59:37.728Z,99.90
2018-05-08T06:02:06.163Z,99.90
2018-05-08T06:04:34.240Z,99.90
2018-05-08T06:07:02.325Z,99.90
2018-05-08T06:09:30.441Z,99.90
2018-05-08T06:11:58.576Z,99.90
2018-05-08T06:14:26.587Z,99.90
2018-05-08T06:16:54.792Z,99.90
2018-05-08T06:19:22.858Z,99.90
2018-05-08T06:21:50.924Z,99.90
2018-05-08T06:24:19.045Z,99.90
2018-05-08T06:26:47.110Z,99.90
2018-05-08T06:29:15.184Z,99.90
2018-05-08T06:31:43.598Z,99.90
2018-05-08T06:34:11.676Z,99.90
2018-05-08T06:36:39.914Z,99.90
2018-05-08T06:39:08.444Z,99.40
2018-05-08T06:41:37.278Z,98.80
2018-05-08T06:44:05.354Z,98.80
2018-05-08T06:46:33.662Z,98.20
2018-05-08T06:49:02.394Z,99.20
2018-05-08T06:51:30.460Z,99.00
2018-05-08T06:53:59.004Z,98.80
2018-05-08T06:56:27.068Z,98.90
2018-05-08T06:58:55.132Z,99.20
2018-05-08T07:01:23.556Z,98.50
2018-05-08T07:03:51.616Z,98.60
2018-05-08T07:06:19.692Z,97.90
2018-05-08T07:08:48.636Z,97.10
2018-05-08T07:11:16.698Z,97.00
2018-05-08T07:13:44.761Z,96.50
2018-05-08T07:16:13.146Z,96.90
2018-05-08T07:18:41.008Z,96.30
2018-05-08T07:21:09.082Z,95.80
2018-05-08T07:23:37.380Z,95.90
2018-05-08T07:26:05.437Z,95.70
2018-05-08T07:28:33.512Z,95.60
2018-05-08T07:31:01.682Z,95.60
2018-05-08T07:33:29.784Z,94.40
2018-05-08T07:35:57.835Z,94.80
2018-05-08T07:38:26.583Z,94.30
2018-05-08T07:40:54.659Z,94.50
2018-05-08T07:43:22.723Z,94.50
2018-05-08T07:45:50.940Z,94.90
2018-05-08T07:48:19.009Z,94.60
2018-05-08T07:50:47.078Z,94.40
2018-05-08T07:53:15.450Z,93.60
2018-05-08T07:55:43.524Z,93.70
2018-05-08T07:58:11.598Z,93.60
2018-05-08T08:00:39.977Z,93.80
2018-05-08T08:03:08.048Z,93.20
2018-05-08T08:05:36.114Z,93.30
2018-05-08T08:08:04.820Z,93.60
2018-05-08T08:10:32.918Z,92.80
2018-05-08T08:13:00.979Z,92.70
2018-05-08T08:15:29.936Z,91.50
2018-05-08T08:17:58.008Z,91.50
2018-05-08T08:20:26.062Z,91.40
2018-05-08T08:22:54.812Z,91.50
2018-05-08T08:25:22.882Z,90.90
2018-05-08T08:27:50.946Z,90.30
2018-05-08T08:30:20.213Z,87.70
2018-05-08T08:32:48.278Z,87.70
2018-05-08T08:35:16.343Z,87.70
2018-05-08T08:37:44.780Z,85.40
2018-05-08T08:40:13.276Z,85.60
2018-05-08T08:42:41.336Z,86.60
2018-05-08T08:45:09.900Z,85.90
2018-05-08T08:47:38.800Z,87.10
2018-05-08T08:50:06.821Z,87.10
2018-05-08T08:52:35.061Z,84.10
2018-05-08T08:55:03.125Z,83.50
2018-05-08T08:57:31.184Z,85.00
2018-05-08T09:00:00.453Z,84.00
2018-05-08T09:02:28.517Z,84.00
2018-05-08T09:04:56.609Z,83.90
2018-05-08T09:07:25.577Z,81.60
2018-05-08T09:09:53.649Z,81.60
2018-05-08T09:12:21.726Z,79.50
2018-05-08T09:14:50.127Z,80.60
2018-05-08T09:17:18.959Z,81.00
2018-05-08T09:19:47.016Z,81.70
2018-05-08T09:22:15.247Z,84.10
2018-05-08T09:24:43.305Z,84.00
2018-05-08T09:27:11.368Z,83.10
2018-05-08T09:29:39.541Z,79.90
2018-05-08T09:32:07.602Z,81.70
2018-05-08T09:34:35.650Z,80.30
2018-05-08T09:37:04.009Z,78.90
2018-05-08T09:39:32.832Z,79.20
2018-05-08T09:42:01.212Z,79.20
2018-05-08T09:44:29.441Z,77.40
2018-05-08T09:46:58.262Z,78.60
2018-05-08T09:49:26.320Z,78.50
2018-05-08T09:51:54.574Z,78.10
2018-05-08T09:54:23.406Z,77.70
2018-05-08T09:56:51.461Z,77.60
2018-05-08T09:59:19.632Z,76.90
2018-05-08T10:01:47.700Z,76.10
2018-05-08T10:04:15.770Z,77.70
2018-05-08T10:06:44.259Z,78.10
2018-05-08T10:09:12.284Z,76.50
2018-05-08T10:11:40.337Z,73.50
2018-05-08T10:14:08.444Z,71.30
2018-05-08T10:16:37.316Z,72.60
2018-05-08T10:19:05.386Z,72.50
2018-05-08T10:21:33.505Z,72.40
2018-05-08T10:24:01.580Z,71.90
2018-05-08T10:26:29.640Z,71.80
2018-05-08T10:28:57.795Z,68.90
2018-05-08T10:31:26.658Z,68.70
2018-05-08T10:33:54.709Z,68.70
2018-05-08T10:36:23.208Z,66.70
2018-05-08T10:38:51.268Z,68.70
2018-05-08T10:41:19.331Z,66.20
2018-05-08T10:43:48.505Z,66.50
2018-05-08T10:46:16.581Z,67.20
2018-05-08T10:48:44.669Z,66.50
2018-05-08T10:51:13.161Z,67.70
2018-05-08T10:53:41.221Z,65.30
2018-05-08T10:56:09.293Z,65.00
2018-05-08T10:58:37.457Z,65.00
2018-05-08T11:01:05.513Z,64.60
2018-05-08T11:03:33.587Z,68.10
2018-05-08T11:06:02.200Z,64.70
2018-05-08T11:08:30.265Z,65.00
2018-05-08T11:10:58.329Z,64.80
2018-05-08T11:13:26.732Z,62.90
2018-05-08T11:15:54.841Z,64.40
2018-05-08T11:18:22.903Z,63.80
2018-05-08T11:20:51.853Z,60.40
2018-05-08T11:23:19.928Z,60.40
2018-05-08T11:25:48.007Z,59.60
2018-05-08T11:28:16.401Z,59.80
2018-05-08T11:30:44.453Z,59.50
2018-05-08T11:33:12.517Z,58.50
2018-05-08T11:35:40.901Z,56.90
2018-05-08T11:38:08.952Z,56.50
2018-05-08T11:40:37.024Z,57.10
2018-05-08T11:43:05.187Z,54.90
2018-05-08T11:45:33.404Z,58.20
2018-05-08T11:48:01.459Z,55.70
2018-05-08T11:50:31.485Z,56.80
2018-05-08T11:52:59.554Z,56.70
2018-05-08T11:55:27.618Z,55.20
2018-05-08T11:57:56.317Z,56.40
2018-05-08T12:00:24.389Z,54.20
2018-05-08T12:02:52.453Z,55.10
2018-05-08T12:05:20.881Z,52.60
2018-05-08T12:07:49.701Z,54.00
2018-05-08T12:10:19.692Z,53.60
2018-05-08T12:12:47.748Z,53.60
2018-05-08T12:15:15.818Z,52.20
2018-05-08T12:17:44.260Z,52.30
2018-05-08T12:20:12.374Z,53.00
2018-05-08T12:22:41.174Z,51.90
2018-05-08T12:25:09.692Z,51.80
2018-05-08T12:27:37.760Z,50.10
2018-05-08T12:30:05.839Z,50.70
2018-05-08T12:32:33.950Z,49.60
2018-05-08T12:35:02.776Z,50.80
2018-05-08T12:37:30.842Z,50.70
2018-05-08T12:39:59.368Z,51.40
2018-05-08T12:42:27.426Z,49.90
2018-05-08T12:44:55.487Z,47.00
2018-05-08T12:47:24.075Z,46.80
2018-05-08T12:49:52.153Z,47.90
2018-05-08T12:52:20.217Z,49.60
2018-05-08T12:54:48.699Z,48.40
2018-05-08T12:57:16.777Z,47.50
2018-05-08T12:59:44.847Z,48.10
2018-05-08T13:02:12.973Z,50.70
2018-05-08T13:04:41.023Z,49.90
2018-05-08T13:07:09.875Z,48.90
2018-05-08T13:09:38.345Z,48.80
2018-05-08T13:12:06.403Z,50.20
2018-05-08T13:14:34.489Z,48.80
2018-05-08T13:17:03.193Z,50.20
2018-05-08T13:19:31.259Z,50.50
2018-05-08T13:21:59.349Z,48.80
2018-05-08T13:24:28.331Z,46.40
2018-05-08T13:26:56.397Z,46.40
2018-05-08T13:29:24.497Z,46.90
2018-05-08T13:31:53.767Z,45.20
2018-05-08T13:34:21.829Z,45.20
2018-05-08T13:36:49.923Z,45.00
2018-05-08T13:39:18.291Z,45.90
2018-05-08T13:41:46.358Z,46.20
2018-05-08T13:44:14.430Z,45.60
2018-05-08T13:46:42.809Z,44.70
2018-05-08T13:49:11.359Z,45.00
2018-05-08T13:51:39.415Z,44.50
2018-05-08T13:54:07.643Z,45.30
2018-05-08T13:56:35.693Z,45.20
2018-05-08T13:59:03.777Z,44.40
2018-05-08T14:01:32.193Z,43.70
2018-05-08T14:04:01.023Z,43.10
2018-05-08T14:06:29.079Z,43.10
2018-05-08T14:08:57.326Z,42.60
2018-05-08T14:11:26.150Z,44.20
2018-05-08T14:13:54.216Z,44.10
2018-05-08T14:16:22.748Z,44.20
2018-05-08T14:18:51.573Z,43.10
2018-05-08T14:21:19.622Z,43.00
2018-05-08T14:23:48.834Z,42.10
2018-05-08T14:26:16.898Z,42.10
2018-05-08T14:28:45.718Z,41.30
2018-05-08T14:31:13.980Z,41.20
2018-05-08T14:33:42.040Z,41.70
2018-05-08T14:36:10.100Z,42.20
2018-05-08T14:38:39.400Z,39.40
2018-05-08T14:41:08.346Z,37.90
2018-05-08T14:43:36.517Z,37.90
2018-05-08T14:46:04.478Z,36.40
2018-05-08T14:48:33.223Z,36.80
2018-05-08T14:51:02.350Z,37.30
2018-05-08T14:56:05.112Z,37.00
2018-05-08T14:58:33.186Z,36.40
2018-05-08T15:01:02.031Z,37.00
2018-05-08T15:03:30.222Z,37.00
2018-05-08T15:05:58.283Z,35.60
2018-05-08T15:08:26.346Z,34.30
2018-05-08T15:10:54.765Z,34.90
2018-05-08T15:13:23.585Z,35.00
2018-05-08T15:15:51.649Z,35.00
2018-05-08T15:18:19.881Z,34.70
2018-05-08T15:20:47.958Z,35.40
2018-05-08T15:23:16.021Z,35.70
2018-05-08T15:25:44.147Z,34.70
2018-05-08T15:28:12.206Z,36.00
2018-05-08T15:30:40.257Z,36.80
2018-05-08T15:33:09.225Z,34.50
2018-05-08T15:35:37.290Z,34.50
2018-05-08T15:38:05.345Z,34.40
2018-05-08T15:40:33.729Z,34.80
2018-05-08T15:43:01.807Z,34.70
2018-05-08T15:45:29.859Z,33.60
2018-05-08T15:47:58.248Z,34.80
2018-05-08T15:50:26.337Z,34.50
2018-05-08T15:52:54.877Z,35.00
2018-05-08T15:55:23.391Z,35.00
2018-05-08T15:57:51.461Z,33.60
2018-05-08T16:00:19.518Z,34.20
2018-05-08T16:02:47.908Z,34.60
2018-05-08T16:05:15.992Z,34.40
2018-05-08T16:07:44.052Z,34.40
2018-05-08T16:10:12.448Z,33.00
2018-05-08T16:12:40.518Z,36.00
2018-05-08T16:15:08.572Z,35.00
2018-05-08T16:17:36.946Z,34.60
2018-05-08T16:20:05.016Z,32.80
2018-05-08T16:22:33.084Z,34.20
2018-05-08T16:25:01.460Z,32.70
2018-05-08T16:27:29.572Z,31.60
2018-05-08T16:29:57.603Z,32.30
2018-05-08T16:32:26.345Z,33.20
2018-05-08T16:34:55.176Z,31.40
2018-05-08T16:37:23.241Z,31.40
2018-05-08T16:39:51.395Z,33.90
2018-05-08T16:42:19.450Z,35.10
2018-05-08T16:44:47.512Z,34.50
2018-05-08T16:47:15.992Z,34.60
2018-05-08T16:49:44.823Z,33.30
2018-05-08T16:52:12.882Z,33.30
2018-05-08T16:54:42.059Z,33.10
2018-05-08T16:57:10.080Z,33.90
2018-05-08T16:59:38.140Z,34.60
2018-05-08T17:02:06.288Z,33.40
2018-05-08T17:04:34.350Z,35.10
2018-05-08T17:07:02.412Z,35.20
2018-05-08T17:09:30.528Z,37.00
2018-05-08T17:11:58.698Z,37.00
2018-05-08T17:14:26.738Z,37.80
2018-05-08T17:16:54.800Z,39.80
2018-05-08T17:19:23.096Z,38.60
2018-05-08T17:21:51.169Z,37.00
2018-05-08T17:24:19.236Z,39.10
2018-05-08T17:26:47.561Z,40.40
2018-05-08T17:29:15.627Z,38.60
2018-05-08T17:31:43.697Z,39.20
2018-05-08T17:34:11.851Z,39.50
2018-05-08T17:36:39.912Z,37.90
2018-05-08T17:39:08.044Z,38.70
2018-05-08T17:41:36.176Z,39.40
2018-05-08T17:44:04.236Z,42.10
2018-05-08T17:46:32.296Z,41.50
2018-05-08T17:49:01.570Z,43.50
2018-05-08T17:51:29.637Z,43.60
2018-05-08T17:53:57.697Z,42.90
2018-05-08T17:56:27.331Z,42.80
2018-05-08T17:58:55.375Z,42.80
2018-05-08T18:01:23.441Z,42.50
2018-05-08T18:03:52.619Z,43.80
2018-05-08T18:06:20.681Z,43.80
2018-05-08T18:08:48.753Z,46.90
2018-05-08T18:11:17.196Z,47.20
2018-05-08T18:13:45.189Z,47.80
2018-05-08T18:16:13.265Z,47.70
2018-05-08T18:18:41.663Z,49.00
2018-05-08T18:21:09.725Z,49.20
2018-05-08T18:23:37.788Z,49.80
2018-05-08T18:26:05.939Z,49.90
2018-05-08T18:28:33.991Z,50.90
2018-05-08T18:31:02.055Z,50.50
2018-05-08T18:33:30.248Z,51.60
2018-05-08T18:35:58.310Z,52.20
2018-05-08T18:38:26.386Z,53.10
2018-05-08T18:40:54.620Z,53.30
2018-05-08T18:43:23.444Z,54.50
2018-05-08T18:45:51.580Z,54.40
2018-05-08T18:48:20.070Z,55.60
2018-05-08T18:50:48.906Z,57.00
2018-05-08T18:53:16.970Z,56.30
2018-05-08T18:55:45.542Z,56.80
2018-05-08T18:58:14.042Z,56.00
2018-05-08T19:00:47.706Z,57.20
2018-05-08T19:03:15.756Z,57.30
2018-05-08T19:05:43.824Z,57.60
2018-05-08T19:08:11.891Z,58.10
2018-05-08T19:10:40.144Z,57.90
2018-05-08T19:13:08.220Z,58.50
2018-05-08T19:15:41.924Z,59.10
2018-05-08T19:18:10.406Z,59.40
2018-05-08T19:20:38.468Z,58.40
2018-05-08T19:23:06.556Z,58.50
2018-05-08T19:25:34.948Z,59.00
2018-05-08T19:28:08.698Z,58.40
2018-05-08T19:30:36.943Z,58.60
2018-05-08T19:33:05.766Z,59.10
2018-05-08T19:35:39.505Z,59.10
2018-05-08T19:38:13.448Z,59.10
2018-05-08T19:40:42.267Z,59.40
2018-05-08T19:43:10.463Z,59.40
2018-05-08T19:45:38.531Z,59.80
2018-05-08T19:48:06.595Z,59.60
2018-05-08T19:50:35.059Z,59.90
2018-05-08T19:53:03.127Z,59.90
2018-05-08T19:55:31.173Z,59.80
2018-05-08T19:57:59.518Z,59.20
2018-05-08T20:00:27.745Z,59.10
2018-05-08T20:02:55.798Z,59.30
2018-05-08T20:05:24.766Z,58.40
2018-05-08T20:07:52.821Z,58.40
2018-05-08T20:10:20.881Z,56.80
2018-05-08T20:12:49.183Z,56.40
2018-05-08T20:15:17.240Z,56.40
2018-05-08T20:17:45.307Z,57.50
2018-05-08T20:20:13.473Z,57.70
2018-05-08T20:22:41.535Z,58.00
2018-05-08T20:25:09.603Z,58.80
2018-05-08T20:27:38.569Z,58.50
2018-05-08T20:30:06.633Z,58.40
2018-05-08T20:32:34.696Z,58.80
2018-05-08T20:35:02.834Z,57.20
2018-05-08T20:37:30.956Z,57.70
2018-05-08T20:39:59.023Z,57.30
2018-05-08T20:42:27.561Z,57.10
2018-05-08T20:44:55.612Z,57.10
2018-05-08T20:47:23.684Z,56.90
2018-05-08T20:49:52.089Z,56.30
2018-05-08T20:52:20.141Z,56.70
2018-05-08T20:54:48.239Z,56.30
2018-05-08T20:57:17.225Z,56.40
2018-05-08T20:59:45.429Z,56.30
2018-05-08T21:02:13.828Z,56.30
2018-05-08T21:04:41.987Z,57.10
2018-05-08T21:07:10.046Z,57.00
2018-05-08T21:09:38.256Z,56.30
2018-05-08T21:12:06.865Z,56.20
2018-05-08T21:14:34.934Z,55.70
2018-05-08T21:17:03.031Z,56.30
2018-05-08T21:19:31.994Z,56.80
2018-05-08T21:22:00.051Z,56.80
2018-05-08T21:24:28.135Z,58.20
2018-05-08T21:26:56.246Z,58.20
2018-05-08T21:29:30.793Z,57.00
2018-05-08T21:31:59.125Z,56.90
2018-05-08T21:34:27.188Z,56.60
2018-05-08T21:36:55.263Z,57.00
2018-05-08T21:39:23.699Z,57.20
2018-05-08T21:41:51.757Z,57.40
2018-05-08T21:44:19.859Z,57.10
2018-05-08T21:46:48.152Z,56.60
2018-05-08T21:49:16.217Z,57.40
2018-05-08T21:51:44.282Z,55.20
2018-05-08T21:54:12.386Z,54.80
2018-05-08T21:56:40.445Z,54.70
2018-05-08T21:59:08.509Z,54.40
2018-05-08T22:01:37.196Z,53.80
2018-05-08T22:04:05.355Z,53.40
2018-05-08T22:06:33.424Z,52.20
2018-05-08T22:09:01.605Z,52.50
2018-05-08T22:11:29.672Z,52.40
2018-05-08T22:13:57.753Z,52.10
2018-05-08T22:16:25.934Z,53.20
2018-05-08T22:18:53.992Z,53.30
2018-05-08T22:21:22.045Z,53.70
2018-05-08T22:23:50.469Z,53.70
2018-05-08T22:26:19.288Z,54.50
2018-05-08T22:28:47.771Z,54.50
2018-05-08T22:31:15.948Z,55.60
2018-05-08T22:33:44.008Z,55.40
2018-05-08T22:36:12.064Z,56.50
2018-05-08T22:38:41.338Z,55.70
2018-05-08T22:41:09.402Z,55.70
2018-05-08T22:43:37.523Z,56.60
2018-05-08T22:46:06.472Z,58.30
2018-05-08T22:48:34.562Z,58.20
2018-05-08T22:51:03.385Z,57.30
2018-05-08T22:53:31.605Z,57.20
2018-05-08T22:55:59.688Z,58.20
2018-05-08T22:58:27.750Z,58.20
2018-05-08T23:00:56.119Z,58.30
2018-05-08T23:03:24.196Z,58.60
2018-05-08T23:05:52.746Z,58.60
2018-05-08T23:08:20.975Z,58.50
2018-05-08T23:10:49.797Z,58.80
2018-05-08T23:13:17.860Z,58.70
2018-05-08T23:15:46.089Z,59.40
2018-05-08T23:18:14.228Z,59.10
2018-05-08T23:20:43.009Z,58.80
2018-05-08T23:23:11.213Z,58.60
2018-05-08T23:25:39.289Z,59.90
2018-05-08T23:28:07.352Z,59.40
2018-05-08T23:30:35.459Z,60.00
2018-05-08T23:33:04.313Z,63.00
2018-05-08T23:35:32.377Z,63.40
2018-05-08T23:38:00.535Z,64.20
2018-05-08T23:40:28.639Z,65.10
2018-05-08T23:42:56.681Z,66.50
2018-05-08T23:45:24.839Z,66.70
2018-05-08T23:47:52.911Z,67.40
2018-05-08T23:50:20.961Z,68.40
2018-05-08T23:52:49.305Z,69.10
2018-05-08T23:55:17.369Z,69.40
2018-05-08T23:57:45.425Z,70.10
